KFMY/FMY METAR and TAF weather

Enter ICAO airport designator
Station Type Date Time Source
KFMY METAR 2019/06/26 05:53 UTC NOAA

KFMY 260553Z AUTO 36005KT 10SM CLR 27/21 A3008 RMK AO2 LTG DSNT S SLP186 T02670206 10311 20267 50003


Station Type Date Time Source
KFMY Decoded METAR 2019/06/26 05:53 UTC NOAA

FORT MYERS PAGE FIELD, FL, United States (KFMY) 26-35N 081-52W 4M
Jun 26, 2019 - 01:53 AM EDT / 2019.06.26 0553 UTC
Wind: from the N (360 degrees) at 6 MPH (5 KT):0
Visibility: 10 mile(s):0
Sky conditions: clear
Weather: Lightning observed
Temperature: 80.1 F (26.7 C)
Dew Point: 69.1 F (20.6 C)
Relative Humidity: 69%
Pressure (altimeter): 30.08 in. Hg (1018 hPa)
Pressure tendency: 0.01 inches (0.3 hPa) higher than three hours ago
ob: KFMY 260553Z AUTO 36005KT 10SM CLR 27/21 A3008 RMK AO2 LTG DSNT S SLP186 T02670206 10311 20267 50003
cycle: 6

Station Type Date Time Source
KFMY TAF 2019/06/26 06:10 UTC NOAA

TAF KFMY 260608Z 2606/2706 VRB03KT P6SM SCT080 BKN250
FM261400 04005KT P6SM SCT030 SCT250
FM261900 34007KT P6SM VCTS SCT050CB SCT250
FM270100 05004KT P6SM VCTS SCT060CB SCT080 BKN250
FM270400 VRB03KT P6SM SCT080 BKN200

Example: see airport list